createdAt,value
2018-07-21T00:00:59.319Z,81.98
2018-07-21T00:02:00.375Z,82.17
2018-07-21T00:02:59.504Z,82.94
2018-07-21T00:03:59.319Z,81.88
2018-07-21T00:04:59.406Z,82.17
2018-07-21T00:05:59.378Z,81.78
2018-07-21T00:06:59.337Z,81.88
2018-07-21T00:07:59.326Z,81.59
2018-07-21T00:08:59.322Z,82.75
2018-07-21T00:09:59.427Z,82.26
2018-07-21T00:10:59.335Z,81.35
2018-07-21T00:11:59.379Z,82.56
2018-07-21T00:12:59.323Z,83.48
2018-07-21T00:13:59.336Z,84.25
2018-07-21T00:14:59.319Z,84.16
2018-07-21T00:15:59.433Z,81.07
2018-07-21T00:16:59.483Z,81.26
2018-07-21T00:17:59.590Z,80.49
2018-07-21T00:18:59.413Z,80.68
2018-07-21T00:19:59.390Z,81.65
2018-07-21T00:20:59.380Z,82.03
2018-07-21T00:22:00.139Z,80.78
2018-07-21T00:22:59.409Z,81.07
2018-07-21T00:23:59.403Z,80.58
2018-07-21T00:24:59.535Z,81.55
2018-07-21T00:25:59.384Z,81.07
2018-07-21T00:26:59.445Z,80.87
2018-07-21T00:27:59.486Z,80.39
2018-07-21T00:28:59.486Z,80.87
2018-07-21T00:29:59.398Z,82.32
2018-07-21T00:30:59.436Z,84.25
2018-07-21T00:31:59.439Z,83.48
2018-07-21T00:32:59.450Z,83.19
2018-07-21T00:33:59.476Z,82.42
2018-07-21T00:34:59.463Z,81.93
2018-07-21T00:35:59.623Z,81.07
2018-07-21T00:37:00.203Z,81.26
2018-07-21T00:37:59.603Z,79.72
2018-07-21T00:38:59.584Z,78.56
2018-07-21T00:39:59.676Z,79.14
2018-07-21T00:40:59.553Z,79.91
2018-07-21T00:41:59.593Z,79.81
2018-07-21T00:42:59.556Z,80.58
2018-07-21T00:43:59.647Z,79.91
2018-07-21T00:44:59.518Z,80.20
2018-07-21T00:45:59.807Z,80.49
2018-07-21T00:46:59.747Z,80.68
2018-07-21T00:47:59.528Z,79.91
2018-07-21T00:48:59.499Z,80.10
2018-07-21T00:49:59.537Z,79.04
2018-07-21T00:50:59.828Z,79.04
2018-07-21T00:51:59.550Z,79.04
2018-07-21T00:52:59.556Z,78.75
2018-07-21T00:53:59.565Z,78.85
2018-07-21T00:54:59.525Z,79.14
2018-07-21T00:55:59.517Z,77.98
2018-07-21T00:56:59.575Z,78.56
2018-07-21T00:57:59.567Z,79.14
2018-07-21T00:58:59.617Z,79.14
2018-07-21T00:59:59.579Z,79.24
2018-07-21T01:00:59.584Z,78.94
2018-07-21T01:01:59.709Z,80.58
2018-07-21T01:02:59.653Z,80.39
2018-07-21T01:03:59.811Z,79.72
2018-07-21T01:04:59.589Z,80.20
2018-07-21T01:05:59.624Z,80.68
2018-07-21T01:06:59.574Z,79.62
2018-07-21T01:07:59.629Z,79.43
2018-07-21T01:08:59.750Z,81.16
2018-07-21T01:09:59.649Z,81.16
2018-07-21T01:10:59.619Z,81.55
2018-07-21T01:11:59.610Z,80.97
2018-07-21T01:12:59.724Z,81.74
2018-07-21T01:13:59.615Z,81.35
2018-07-21T01:14:59.600Z,81.65
2018-07-21T01:15:59.643Z,81.55
2018-07-21T01:16:59.624Z,81.93
2018-07-21T01:17:59.656Z,81.84
2018-07-21T01:18:59.636Z,82.23
2018-07-21T01:19:59.650Z,81.55
2018-07-21T01:20:59.681Z,81.80
2018-07-21T01:21:59.658Z,82.03
2018-07-21T01:22:59.639Z,82.18
2018-07-21T01:23:59.654Z,81.70
2018-07-21T01:24:59.667Z,81.99
2018-07-21T01:25:59.618Z,82.81
2018-07-21T01:26:59.621Z,82.86
2018-07-21T01:27:59.724Z,82.96
2018-07-21T01:28:59.644Z,83.19
2018-07-21T01:29:59.691Z,82.57
2018-07-21T01:30:59.725Z,83.34
2018-07-21T01:31:59.633Z,83.63
2018-07-21T01:32:59.748Z,83.92
2018-07-21T01:33:59.756Z,83.83
2018-07-21T01:34:59.658Z,84.41
2018-07-21T01:35:59.736Z,84.89
2018-07-21T01:36:59.676Z,84.89
2018-07-21T01:37:59.681Z,85.33
2018-07-21T01:38:59.973Z,85.37
2018-07-21T01:39:59.785Z,85.71
2018-07-21T01:40:59.711Z,85.71
2018-07-21T01:41:59.692Z,85.91
2018-07-21T01:42:59.684Z,85.75
2018-07-21T01:44:00.179Z,85.85
2018-07-21T01:44:59.778Z,85.61
2018-07-21T01:45:59.746Z,86.43
2018-07-21T01:46:59.719Z,86.04
2018-07-21T01:47:59.750Z,86.43
2018-07-21T01:48:59.749Z,86.14
2018-07-21T01:49:59.861Z,86.19
2018-07-21T01:50:59.746Z,86.77
2018-07-21T01:51:59.755Z,87.35
2018-07-21T01:52:59.755Z,87.93
2018-07-21T01:53:59.876Z,87.54
2018-07-21T01:54:59.793Z,87.26
2018-07-21T01:55:59.814Z,87.35
2018-07-21T01:56:59.787Z,86.96
2018-07-21T01:57:59.817Z,87.64
2018-07-21T01:58:59.751Z,87.54
2018-07-21T01:59:59.818Z,87.45
2018-07-21T02:00:59.758Z,87.74
2018-07-21T02:01:59.816Z,87.74
2018-07-21T02:02:59.834Z,88.02
2018-07-21T02:03:59.834Z,86.58
2018-07-21T02:04:59.855Z,87.26
2018-07-21T02:05:59.842Z,86.87
2018-07-21T02:06:59.772Z,86.68
2018-07-21T02:07:59.821Z,86.96
2018-07-21T02:08:59.901Z,87.35
2018-07-21T02:09:59.874Z,87.64
2018-07-21T02:10:59.794Z,87.83
2018-07-21T02:11:59.890Z,88.31
2018-07-21T02:12:59.857Z,88.79
2018-07-21T02:13:59.852Z,88.41
2018-07-21T02:14:59.955Z,88.60
2018-07-21T02:15:59.871Z,88.31
2018-07-21T02:17:00.248Z,88.31
2018-07-21T02:18:00.048Z,88.31
2018-07-21T02:18:59.856Z,88.60
2018-07-21T02:19:59.837Z,88.41
2018-07-21T02:20:59.965Z,88.22
2018-07-21T02:21:59.861Z,88.60
2018-07-21T02:22:59.877Z,88.89
2018-07-21T02:23:59.915Z,88.41
2018-07-21T02:24:59.873Z,88.31
2018-07-21T02:25:59.939Z,87.93
2018-07-21T02:26:59.890Z,87.54
2018-07-21T02:27:59.945Z,87.54
2018-07-21T02:28:59.921Z,88.22
2018-07-21T02:29:59.935Z,88.51
2018-07-21T02:31:00.065Z,88.70
2018-07-21T02:31:59.913Z,89.37
2018-07-21T02:32:59.904Z,88.70
2018-07-21T02:33:59.956Z,88.22
2018-07-21T02:34:59.994Z,88.60
2018-07-21T02:35:59.900Z,88.99
2018-07-21T02:37:00.753Z,89.67
2018-07-21T02:37:59.987Z,89.57
2018-07-21T02:38:59.945Z,89.47
2018-07-21T02:39:59.918Z,90.15
2018-07-21T02:41:00.108Z,89.95
2018-07-21T02:41:59.938Z,89.86
2018-07-21T02:42:59.951Z,90.34
2018-07-21T02:44:00.014Z,90.63
2018-07-21T02:45:00.059Z,90.53
2018-07-21T02:45:59.947Z,90.34
2018-07-21T02:46:59.998Z,90.63
2018-07-21T02:47:59.967Z,90.44
2018-07-21T02:49:00.002Z,90.44
2018-07-21T02:49:59.966Z,90.53
2018-07-21T02:51:00.023Z,90.44
2018-07-21T02:52:00.221Z,90.34
2018-07-21T02:52:59.996Z,90.82
2018-07-21T02:53:59.990Z,90.92
2018-07-21T02:54:59.956Z,91.02
2018-07-21T02:56:00.098Z,91.69
2018-07-21T02:57:00.007Z,91.98
2018-07-21T02:58:00.043Z,92.22
2018-07-21T02:59:00.113Z,92.13
2018-07-21T03:00:00.041Z,92.13
2018-07-21T03:01:00.037Z,92.41
2018-07-21T03:01:59.987Z,91.64
2018-07-21T03:03:00.080Z,92.22
2018-07-21T03:04:00.068Z,92.80
2018-07-21T03:05:00.101Z,92.80
2018-07-21T03:06:00.099Z,92.22
2018-07-21T03:07:00.086Z,92.80
2018-07-21T03:08:00.089Z,92.71
2018-07-21T03:09:00.150Z,91.93
2018-07-21T03:10:00.179Z,91.83
2018-07-21T03:11:00.078Z,92.61
2018-07-21T03:12:00.067Z,92.99
2018-07-21T03:13:00.053Z,93.09
2018-07-21T03:14:00.067Z,92.41
2018-07-21T03:15:00.061Z,92.71
2018-07-21T03:16:00.098Z,92.61
2018-07-21T03:17:00.037Z,92.41
2018-07-21T03:18:00.084Z,92.32
2018-07-21T03:19:00.119Z,92.03
2018-07-21T03:20:00.101Z,91.74
2018-07-21T03:21:00.110Z,91.98
2018-07-21T03:22:00.168Z,92.46
2018-07-21T03:23:00.097Z,92.17
2018-07-21T03:24:00.150Z,92.27
2018-07-21T03:25:00.115Z,92.17
2018-07-21T03:26:00.184Z,92.27
2018-07-21T03:27:00.097Z,92.03
2018-07-21T03:28:00.100Z,91.98
2018-07-21T03:29:00.113Z,92.36
2018-07-21T03:30:00.206Z,92.36
2018-07-21T03:31:00.155Z,91.88
2018-07-21T03:32:00.079Z,92.27
2018-07-21T03:33:00.180Z,92.03
2018-07-21T03:34:00.191Z,91.88
2018-07-21T03:35:00.167Z,91.69
2018-07-21T03:36:00.276Z,92.32
2018-07-21T03:37:00.188Z,91.83
2018-07-21T03:38:00.097Z,92.71
2018-07-21T03:39:00.206Z,92.80
2018-07-21T03:40:00.131Z,92.75
2018-07-21T03:41:00.222Z,92.85
2018-07-21T03:42:00.230Z,92.71
2018-07-21T03:43:00.192Z,92.85
2018-07-21T03:44:00.182Z,92.65
2018-07-21T03:45:00.115Z,92.71
2018-07-21T03:46:00.131Z,92.46
2018-07-21T03:47:00.183Z,92.65
2018-07-21T03:48:00.168Z,92.80
2018-07-21T03:49:00.192Z,92.85
2018-07-21T03:50:00.188Z,92.71
2018-07-21T03:51:00.220Z,93.19
2018-07-21T03:52:00.235Z,93.19
2018-07-21T03:53:00.250Z,93.23
2018-07-21T03:54:00.244Z,92.99
2018-07-21T03:55:00.283Z,93.19
2018-07-21T03:56:00.226Z,93.48
2018-07-21T03:57:00.193Z,93.66
2018-07-21T03:58:00.223Z,93.57
2018-07-21T03:59:00.265Z,93.86
2018-07-21T04:00:00.423Z,93.86
2018-07-21T04:01:00.263Z,93.57
2018-07-21T04:02:00.296Z,93.86
2018-07-21T04:03:00.220Z,93.66
2018-07-21T04:04:00.328Z,93.66
2018-07-21T04:05:00.314Z,93.76
2018-07-21T04:06:00.317Z,93.09
2018-07-21T04:07:00.245Z,93.81
2018-07-21T04:08:00.303Z,93.48
2018-07-21T04:09:00.373Z,93.66
2018-07-21T04:10:00.258Z,93.76
2018-07-21T04:11:00.245Z,93.38
2018-07-21T04:12:00.292Z,93.76
2018-07-21T04:13:00.294Z,93.66
2018-07-21T04:14:00.315Z,93.86
2018-07-21T04:15:00.308Z,93.66
2018-07-21T04:16:00.414Z,93.66
2018-07-21T04:17:00.635Z,93.57
2018-07-21T04:18:00.239Z,93.57
2018-07-21T04:19:00.337Z,93.76
2018-07-21T04:20:00.292Z,93.86
2018-07-21T04:21:00.255Z,93.81
2018-07-21T04:22:00.289Z,93.66
2018-07-21T04:23:00.314Z,93.48
2018-07-21T04:24:00.258Z,93.66
2018-07-21T04:25:00.335Z,93.96
2018-07-21T04:26:00.265Z,94.68
2018-07-21T04:27:00.358Z,94.44
2018-07-21T04:28:00.335Z,94.54
2018-07-21T04:29:00.323Z,94.44
2018-07-21T04:30:00.370Z,94.24
2018-07-21T04:31:00.380Z,94.06
2018-07-21T04:32:00.374Z,94.73
2018-07-21T04:33:00.324Z,94.63
2018-07-21T04:34:00.550Z,94.44
2018-07-21T04:35:00.761Z,95.02
2018-07-21T04:36:00.518Z,94.82
2018-07-21T04:37:00.583Z,95.11
2018-07-21T04:38:00.407Z,95.40
2018-07-21T04:39:00.443Z,95.79
2018-07-21T04:40:00.531Z,95.79
2018-07-21T04:41:00.412Z,95.59
2018-07-21T04:42:00.423Z,95.89
2018-07-21T04:43:00.525Z,95.79
2018-07-21T04:44:00.465Z,96.17
2018-07-21T04:45:00.390Z,95.89
2018-07-21T04:46:00.355Z,96.08
2018-07-21T04:47:00.559Z,95.79
2018-07-21T04:48:00.446Z,95.59
2018-07-21T04:49:00.446Z,95.79
2018-07-21T04:50:00.493Z,95.89
2018-07-21T04:51:00.442Z,95.79
2018-07-21T04:52:00.401Z,95.98
2018-07-21T04:53:00.479Z,96.75
2018-07-21T04:54:00.473Z,96.56
2018-07-21T04:55:00.444Z,96.85
2018-07-21T04:56:00.466Z,96.46
2018-07-21T04:57:01.353Z,96.46
2018-07-21T04:58:00.495Z,96.66
2018-07-21T04:59:00.437Z,96.46
2018-07-21T05:00:00.450Z,96.27
2018-07-21T05:01:00.527Z,96.66
2018-07-21T05:02:00.450Z,96.27
2018-07-21T05:03:00.449Z,96.37
2018-07-21T05:04:00.550Z,96.56
2018-07-21T05:05:00.521Z,96.37
2018-07-21T05:06:00.503Z,96.37
2018-07-21T05:07:01.276Z,96.37
2018-07-21T05:08:00.572Z,96.56
2018-07-21T05:09:00.504Z,96.56
2018-07-21T05:10:00.606Z,96.61
2018-07-21T05:11:00.468Z,96.94
2018-07-21T05:12:00.555Z,96.85
2018-07-21T05:13:00.510Z,96.56
2018-07-21T05:14:00.508Z,96.46
2018-07-21T05:15:00.562Z,96.46
2018-07-21T05:16:00.515Z,96.61
2018-07-21T05:17:00.504Z,96.66
2018-07-21T05:18:00.471Z,97.04
2018-07-21T05:19:00.549Z,97.09
2018-07-21T05:20:00.676Z,97.04
2018-07-21T05:21:00.587Z,96.85
2018-07-21T05:22:00.472Z,96.66
2018-07-21T05:23:00.516Z,97.04
2018-07-21T05:24:00.574Z,96.66
2018-07-21T05:25:00.495Z,97.24
2018-07-21T05:26:00.539Z,96.66
2018-07-21T05:27:00.516Z,96.70
2018-07-21T05:28:00.510Z,96.70
2018-07-21T05:29:00.519Z,96.70
2018-07-21T05:30:00.544Z,96.89
2018-07-21T05:31:00.536Z,96.41
2018-07-21T05:32:00.564Z,96.80
2018-07-21T05:33:00.600Z,96.22
2018-07-21T05:34:00.663Z,96.41
2018-07-21T05:35:00.634Z,96.70
2018-07-21T05:36:00.566Z,96.32
2018-07-21T05:37:00.844Z,96.70
2018-07-21T05:38:00.772Z,96.17
2018-07-21T05:39:00.613Z,95.98
2018-07-21T05:40:00.628Z,95.79
2018-07-21T05:41:00.598Z,95.88
2018-07-21T05:42:00.545Z,96.17
2018-07-21T05:43:00.627Z,95.88
2018-07-21T05:44:00.618Z,95.79
2018-07-21T05:45:00.689Z,96.46
2018-07-21T05:46:00.576Z,96.17
2018-07-21T05:47:00.681Z,95.31
2018-07-21T05:48:01.492Z,95.31
2018-07-21T05:49:00.613Z,95.88
2018-07-21T05:50:00.589Z,96.08
2018-07-21T05:51:00.636Z,95.40
2018-07-21T05:52:00.727Z,95.31
2018-07-21T05:53:00.728Z,95.31
2018-07-21T05:54:00.706Z,96.17
2018-07-21T05:55:00.835Z,95.59
2018-07-21T05:56:00.705Z,95.31
2018-07-21T05:57:00.655Z,95.40
2018-07-21T05:58:00.697Z,95.40
2018-07-21T05:59:00.664Z,94.38
2018-07-21T06:00:00.672Z,95.06
2018-07-21T06:01:00.663Z,94.96
2018-07-21T06:02:00.725Z,94.48
2018-07-21T06:03:00.729Z,93.90
2018-07-21T06:04:00.662Z,93.90
2018-07-21T06:05:00.921Z,94.10
2018-07-21T06:06:00.685Z,94.77
2018-07-21T06:07:00.667Z,94.20
2018-07-21T06:08:00.724Z,94.58
2018-07-21T06:09:00.691Z,93.90
2018-07-21T06:10:00.640Z,94.00
2018-07-21T06:11:01.393Z,93.80
2018-07-21T06:12:02.384Z,93.13
2018-07-21T06:13:07.939Z,94.10
2018-07-21T06:14:01.260Z,94.68
2018-07-21T06:15:00.673Z,95.54
2018-07-21T06:16:00.785Z,95.83
2018-07-21T06:17:00.896Z,95.45
2018-07-21T06:18:00.701Z,95.20
2018-07-21T06:19:00.676Z,95.68
2018-07-21T06:20:00.721Z,94.72
2018-07-21T06:21:00.730Z,94.04
2018-07-21T06:23:00.846Z,93.47
2018-07-21T06:24:00.784Z,93.27
2018-07-21T06:25:00.783Z,93.80
2018-07-21T06:26:00.871Z,93.03
2018-07-21T06:27:00.816Z,91.67
2018-07-21T06:28:00.853Z,92.16
2018-07-21T06:29:00.930Z,92.16
2018-07-21T06:30:00.808Z,90.75
2018-07-21T06:31:00.814Z,91.05
2018-07-21T06:32:00.836Z,91.00
2018-07-21T06:33:00.791Z,90.81
2018-07-21T06:34:00.799Z,90.75
2018-07-21T06:35:00.797Z,90.61
2018-07-21T06:36:00.945Z,90.52
2018-07-21T06:37:00.826Z,89.89
2018-07-21T06:38:00.839Z,89.64
2018-07-21T06:39:00.817Z,88.19
2018-07-21T06:40:00.802Z,89.01
2018-07-21T06:41:00.818Z,87.75
2018-07-21T06:42:00.872Z,86.88
2018-07-21T06:43:00.850Z,86.59
2018-07-21T06:44:00.897Z,85.91
2018-07-21T06:45:00.793Z,85.18
2018-07-21T06:46:02.499Z,83.92
2018-07-21T06:47:00.854Z,85.86
2018-07-21T06:48:00.907Z,86.24
2018-07-21T06:49:01.318Z,85.47
2018-07-21T06:50:00.925Z,82.90
2018-07-21T06:51:00.894Z,79.66
2018-07-21T06:52:01.325Z,76.87
2018-07-21T06:53:02.327Z,72.76
2018-07-21T06:54:00.893Z,72.70
2018-07-21T06:55:00.971Z,69.36
2018-07-21T06:56:00.889Z,68.06
2018-07-21T06:57:01.172Z,67.18
2018-07-21T06:58:00.972Z,67.12
2018-07-21T06:59:01.054Z,67.28
2018-07-21T07:00:00.923Z,67.18
2018-07-21T07:01:00.931Z,65.43
2018-07-21T07:02:00.943Z,65.30
2018-07-21T07:03:00.923Z,67.02
2018-07-21T07:04:00.927Z,68.18
2018-07-21T07:05:01.284Z,67.80
2018-07-21T07:06:01.018Z,67.60
2018-07-21T07:07:03.497Z,68.73
2018-07-21T07:08:01.015Z,69.51
2018-07-21T07:09:00.992Z,69.67
2018-07-21T07:10:01.322Z,70.83
2018-07-21T07:11:01.106Z,70.42
2018-07-21T07:12:01.050Z,70.16
2018-07-21T07:13:01.220Z,69.93
2018-07-21T07:14:01.084Z,70.48
2018-07-21T07:15:01.027Z,69.90
2018-07-21T07:16:01.099Z,69.80
2018-07-21T07:17:01.069Z,70.09
2018-07-21T07:18:01.099Z,71.32
2018-07-21T07:19:01.098Z,70.29
2018-07-21T07:20:01.143Z,70.35
2018-07-21T07:21:01.079Z,71.77
2018-07-21T07:22:01.203Z,71.48
2018-07-21T07:23:01.141Z,71.80
2018-07-21T07:24:01.451Z,73.58
2018-07-21T07:25:01.292Z,71.58
2018-07-21T07:26:01.266Z,69.45
2018-07-21T07:27:01.239Z,67.47
2018-07-21T07:28:01.182Z,65.69
2018-07-21T07:29:01.297Z,62.44
2018-07-21T07:30:01.355Z,60.42
2018-07-21T07:31:01.209Z,59.97
2018-07-21T07:32:01.135Z,62.16
2018-07-21T07:33:01.308Z,65.08
2018-07-21T07:34:01.246Z,67.99
2018-07-21T07:35:01.335Z,69.44
2018-07-21T07:36:01.211Z,69.89
2018-07-21T07:37:01.548Z,69.79
2018-07-21T07:38:01.214Z,70.21
2018-07-21T07:39:01.345Z,70.21
2018-07-21T07:40:01.278Z,70.18
2018-07-21T07:41:01.344Z,71.02
2018-07-21T07:42:01.382Z,70.12
2018-07-21T07:43:01.475Z,68.89
2018-07-21T07:44:01.851Z,68.89
2018-07-21T07:45:01.487Z,69.57
2018-07-21T07:46:01.385Z,68.38
2018-07-21T07:47:02.017Z,68.41
2018-07-21T07:48:01.847Z,66.82
2018-07-21T07:49:01.324Z,69.51
2018-07-21T07:50:02.350Z,69.60
2018-07-21T07:51:02.318Z,69.38
2018-07-21T07:52:01.555Z,70.25
2018-07-21T07:53:02.149Z,70.45
2018-07-21T07:54:01.394Z,70.31
2018-07-21T07:55:01.708Z,71.25
2018-07-21T07:56:02.533Z,72.02
2018-07-21T07:57:01.766Z,71.58
2018-07-21T07:58:03.585Z,71.44
2018-07-21T07:59:01.545Z,72.80
2018-07-21T08:00:01.491Z,73.38
2018-07-21T08:01:01.544Z,73.77
2018-07-21T08:02:04.606Z,73.09
2018-07-21T08:03:01.445Z,73.80
2018-07-21T08:04:01.575Z,70.77
2018-07-21T08:05:01.873Z,69.90
2018-07-21T08:06:02.657Z,69.76
2018-07-21T08:07:01.531Z,69.32
2018-07-21T08:08:01.664Z,70.00
2018-07-21T08:09:01.863Z,69.64
2018-07-21T08:10:02.364Z,68.22
2018-07-21T08:11:02.129Z,67.96
2018-07-21T08:12:02.442Z,67.35
2018-07-21T08:13:09.121Z,66.93
2018-07-21T08:14:02.808Z,68.15
2018-07-21T08:15:02.970Z,68.32
2018-07-21T08:16:02.062Z,68.51
2018-07-21T08:17:03.304Z,68.60
2018-07-21T08:18:01.607Z,68.32
2018-07-21T08:19:02.343Z,68.87
2018-07-21T08:20:03.446Z,69.60
2018-07-21T08:21:02.591Z,71.61
2018-07-21T08:22:01.728Z,70.54
2018-07-21T08:23:01.941Z,71.28
2018-07-21T08:24:01.701Z,71.48
2018-07-21T08:25:01.758Z,70.73
2018-07-21T08:26:01.816Z,70.73
2018-07-21T08:27:02.480Z,70.09
2018-07-21T08:28:02.395Z,69.54
2018-07-21T08:29:01.747Z,69.09
2018-07-21T08:30:01.884Z,69.54
2018-07-21T08:31:01.885Z,69.84
2018-07-21T08:32:02.448Z,70.54
2018-07-21T08:33:02.991Z,71.84
2018-07-21T08:34:02.674Z,69.51
2018-07-21T08:35:01.773Z,69.45
2018-07-21T08:36:01.871Z,68.96
2018-07-21T08:38:01.709Z,69.77
2018-07-21T08:39:01.704Z,69.38
2018-07-21T08:40:02.669Z,67.70
2018-07-21T08:41:03.600Z,69.54
2018-07-21T08:42:02.389Z,70.71
2018-07-21T08:43:01.795Z,70.19
2018-07-21T08:44:03.295Z,71.36
2018-07-21T08:45:04.534Z,71.45
2018-07-21T08:46:02.837Z,71.36
2018-07-21T08:47:01.826Z,69.90
2018-07-21T08:48:02.520Z,70.06
2018-07-21T08:49:01.910Z,68.38
2018-07-21T08:50:01.850Z,67.83
2018-07-21T08:51:01.789Z,67.31
2018-07-21T08:52:01.847Z,67.41
2018-07-21T08:53:01.820Z,68.54
2018-07-21T08:54:01.842Z,68.99
2018-07-21T08:55:01.940Z,69.58
2018-07-21T08:56:01.942Z,69.09
2018-07-21T08:57:02.254Z,68.41
2018-07-21T08:58:01.904Z,68.54
2018-07-21T08:59:02.002Z,69.96
2018-07-21T09:00:01.889Z,69.64
2018-07-21T09:01:01.937Z,70.61
2018-07-21T09:02:01.919Z,70.42
2018-07-21T09:03:01.936Z,69.74
2018-07-21T09:04:02.361Z,70.90
2018-07-21T09:05:02.253Z,69.87
2018-07-21T09:06:01.957Z,68.70
2018-07-21T09:07:02.074Z,69.06
2018-07-21T09:08:03.409Z,70.03
2018-07-21T09:09:01.967Z,71.39
2018-07-21T09:10:02.013Z,69.87
2018-07-21T09:11:02.022Z,69.03
2018-07-21T09:12:02.029Z,69.77
2018-07-21T09:13:02.086Z,69.29
2018-07-21T09:14:02.030Z,69.32
2018-07-21T09:15:02.162Z,69.58
2018-07-21T09:16:02.034Z,70.55
2018-07-21T09:17:02.029Z,71.33
2018-07-21T09:18:02.174Z,70.71
2018-07-21T09:19:02.919Z,70.65
2018-07-21T09:20:02.111Z,70.78
2018-07-21T09:21:02.153Z,70.42
2018-07-21T09:22:27.503Z,69.74
2018-07-21T09:23:02.291Z,70.04
2018-07-21T09:24:02.254Z,69.55
2018-07-21T09:25:02.120Z,67.93
2018-07-21T09:26:02.137Z,66.27
2018-07-21T09:27:02.145Z,65.43
2018-07-21T09:28:02.923Z,66.24
2018-07-21T09:29:02.276Z,65.36
2018-07-21T09:30:02.238Z,65.56
2018-07-21T09:31:02.184Z,66.44
2018-07-21T09:32:02.216Z,64.59
2018-07-21T09:33:02.496Z,65.36
2018-07-21T09:34:02.325Z,65.26
2018-07-21T09:35:02.315Z,65.53
2018-07-21T09:36:02.921Z,65.85
2018-07-21T09:37:02.353Z,63.48
2018-07-21T09:38:02.924Z,63.48
2018-07-21T09:39:02.348Z,64.00
2018-07-21T09:40:02.316Z,62.99
2018-07-21T09:41:02.240Z,61.13
2018-07-21T09:42:02.335Z,60.96
2018-07-21T09:43:02.244Z,61.13
2018-07-21T09:44:02.305Z,60.91
2018-07-21T09:45:02.389Z,60.88
2018-07-21T09:46:02.465Z,62.70
2018-07-21T09:47:02.487Z,61.72
2018-07-21T09:48:02.494Z,62.28
2018-07-21T09:49:02.439Z,63.84
2018-07-21T09:50:02.396Z,63.28
2018-07-21T09:51:02.361Z,60.22
2018-07-21T09:52:02.392Z,60.03
2018-07-21T09:53:02.452Z,60.91
2018-07-21T09:54:02.420Z,62.47
2018-07-21T09:55:02.543Z,62.47
2018-07-21T09:56:02.608Z,61.89
2018-07-21T09:57:02.470Z,61.53
2018-07-21T09:58:02.552Z,60.26
2018-07-21T09:59:02.598Z,60.00
2018-07-21T10:00:02.571Z,60.88
2018-07-21T10:01:02.552Z,60.46
2018-07-21T10:02:02.593Z,60.85
2018-07-21T10:03:02.543Z,60.68
2018-07-21T10:04:02.735Z,58.42
2018-07-21T10:05:02.515Z,56.36
2018-07-21T10:06:02.575Z,55.08
2018-07-21T10:07:02.703Z,55.35
2018-07-21T10:08:02.691Z,55.38
2018-07-21T10:09:02.647Z,55.28
2018-07-21T10:10:02.809Z,55.18
2018-07-21T10:11:02.637Z,55.42
2018-07-21T10:12:02.663Z,54.57
2018-07-21T10:13:02.626Z,53.42
2018-07-21T10:14:02.688Z,54.08
2018-07-21T10:15:02.759Z,54.30
2018-07-21T10:16:02.730Z,53.91
2018-07-21T10:17:02.721Z,52.59
2018-07-21T10:18:03.198Z,52.42
2018-07-21T10:19:02.812Z,53.98
2018-07-21T10:20:02.760Z,53.66
2018-07-21T10:21:02.729Z,52.64
2018-07-21T10:22:02.815Z,51.12
2018-07-21T10:23:02.856Z,51.05
2018-07-21T10:24:02.859Z,49.53
2018-07-21T10:25:02.960Z,48.35
2018-07-21T10:26:03.160Z,48.80
2018-07-21T10:27:03.111Z,49.75
2018-07-21T10:28:02.976Z,49.77
2018-07-21T10:29:02.891Z,50.59
2018-07-21T10:30:03.549Z,49.70
2018-07-21T10:31:02.933Z,50.39
2018-07-21T10:32:02.958Z,50.02
2018-07-21T10:33:03.018Z,50.51
2018-07-21T10:34:03.058Z,50.95
2018-07-21T10:35:03.078Z,49.73
2018-07-21T10:36:03.070Z,51.17
2018-07-21T10:37:03.038Z,52.12
2018-07-21T10:38:03.225Z,52.59
2018-07-21T10:39:03.149Z,52.39
2018-07-21T10:40:03.154Z,52.71
2018-07-21T10:41:03.088Z,51.86
2018-07-21T10:42:03.186Z,51.32
2018-07-21T10:43:03.098Z,50.95
2018-07-21T10:44:03.157Z,51.44
2018-07-21T10:45:03.166Z,50.73
2018-07-21T10:46:03.272Z,52.30
2018-07-21T10:47:03.148Z,50.95
2018-07-21T10:48:03.241Z,51.64
2018-07-21T10:49:03.354Z,50.73
2018-07-21T10:50:03.230Z,52.54
2018-07-21T10:51:03.243Z,53.39
2018-07-21T10:52:03.469Z,53.61
2018-07-21T10:53:03.276Z,55.32
2018-07-21T10:54:03.243Z,55.63
2018-07-21T10:55:03.293Z,55.27
2018-07-21T10:56:03.300Z,56.84
2018-07-21T10:57:03.966Z,56.27
2018-07-21T10:58:03.432Z,55.10
2018-07-21T10:59:03.333Z,55.57
2018-07-21T11:00:03.347Z,55.30
2018-07-21T11:01:03.387Z,55.40
2018-07-21T11:02:03.427Z,56.25
2018-07-21T11:03:03.418Z,57.23
2018-07-21T11:04:03.496Z,55.37
2018-07-21T11:05:03.507Z,55.30
2018-07-21T11:06:03.393Z,55.32
2018-07-21T11:07:03.545Z,55.71
2018-07-21T11:08:03.728Z,55.42
2018-07-21T11:09:03.468Z,55.49
2018-07-21T11:10:03.513Z,55.40
2018-07-21T11:11:03.542Z,55.08
2018-07-21T11:12:03.600Z,56.68
2018-07-21T11:13:03.710Z,57.43
2018-07-21T11:14:03.541Z,57.68
2018-07-21T11:15:03.576Z,57.49
2018-07-21T11:16:04.070Z,56.93
2018-07-21T11:17:03.545Z,56.22
2018-07-21T11:18:03.525Z,55.98
2018-07-21T11:19:03.602Z,55.88
2018-07-21T11:20:03.619Z,55.32
2018-07-21T11:21:03.555Z,55.62
2018-07-21T11:22:04.547Z,55.62
2018-07-21T11:23:03.750Z,54.99
2018-07-21T11:24:03.645Z,54.11
2018-07-21T11:25:03.651Z,55.57
2018-07-21T11:26:03.679Z,53.64
2018-07-21T11:27:03.698Z,52.64
2018-07-21T11:28:03.751Z,53.42
2018-07-21T11:29:03.686Z,53.06
2018-07-21T11:30:03.772Z,53.96
2018-07-21T11:31:03.739Z,52.50
2018-07-21T11:32:03.765Z,53.94
2018-07-21T11:33:03.782Z,54.33
2018-07-21T11:34:03.740Z,54.16
2018-07-21T11:35:10.629Z,54.16
2018-07-21T11:36:04.155Z,54.25
2018-07-21T11:37:03.811Z,53.57
2018-07-21T11:38:03.850Z,52.76
2018-07-21T11:39:04.116Z,53.16
2018-07-21T11:40:03.921Z,54.11
2018-07-21T11:41:03.757Z,54.30
2018-07-21T11:42:03.858Z,54.83
2018-07-21T11:43:03.860Z,55.30
2018-07-21T11:44:03.828Z,55.79
2018-07-21T11:45:03.850Z,55.66
2018-07-21T11:46:03.868Z,57.23
2018-07-21T11:47:03.886Z,57.06
2018-07-21T11:48:05.782Z,55.98
2018-07-21T11:49:03.898Z,55.96
2018-07-21T11:50:04.519Z,56.74
2018-07-21T11:51:03.908Z,56.54
2018-07-21T11:52:03.898Z,56.05
2018-07-21T11:53:03.933Z,57.23
2018-07-21T11:54:03.977Z,57.06
2018-07-21T11:55:03.936Z,56.30
2018-07-21T11:56:04.036Z,56.10
2018-07-21T11:57:03.994Z,56.10
2018-07-21T11:58:04.656Z,56.04
2018-07-21T11:59:03.979Z,55.55
2018-07-21T12:00:04.462Z,55.03
2018-07-21T12:01:09.528Z,56.10
2018-07-21T12:02:05.524Z,55.84
2018-07-21T12:03:12.028Z,55.38
2018-07-21T12:04:04.033Z,55.81
2018-07-21T12:05:04.017Z,56.37
2018-07-21T12:07:06.290Z,57.91
2018-07-21T12:08:04.114Z,57.71
2018-07-21T12:09:04.145Z,57.62
2018-07-21T12:10:04.526Z,57.71
2018-07-21T12:11:04.112Z,57.64
2018-07-21T12:12:04.571Z,57.93
2018-07-21T12:13:04.176Z,57.06
2018-07-21T12:14:04.434Z,57.18
2018-07-21T12:15:06.726Z,56.70
2018-07-21T12:16:05.481Z,56.93
2018-07-21T12:17:04.189Z,58.42
2018-07-21T12:18:04.607Z,57.15
2018-07-21T12:19:04.276Z,57.48
2018-07-21T12:20:04.315Z,57.38
2018-07-21T12:21:04.425Z,57.74
2018-07-21T12:22:04.295Z,56.89
2018-07-21T12:23:04.549Z,55.91
2018-07-21T12:24:04.386Z,55.91
2018-07-21T12:25:04.372Z,56.30
2018-07-21T12:26:04.360Z,56.99
2018-07-21T12:27:04.406Z,57.06
2018-07-21T12:28:04.316Z,57.06
2018-07-21T12:29:05.277Z,57.32
2018-07-21T12:30:04.454Z,57.93
2018-07-21T12:31:04.392Z,57.28
2018-07-21T12:32:04.582Z,57.06
2018-07-21T12:33:04.407Z,57.25
2018-07-21T12:34:04.625Z,57.35
2018-07-21T12:35:04.564Z,58.76
2018-07-21T12:36:04.697Z,58.30
2018-07-21T12:37:04.496Z,58.11
2018-07-21T12:38:04.718Z,58.23
2018-07-21T12:39:04.320Z,57.15
2018-07-21T12:40:04.465Z,57.18
2018-07-21T12:41:04.539Z,56.67
2018-07-21T12:42:04.454Z,57.74
2018-07-21T12:43:04.607Z,57.48
2018-07-21T12:44:04.539Z,57.21
2018-07-21T12:45:04.532Z,56.13
2018-07-21T12:46:04.593Z,56.30
2018-07-21T12:47:04.575Z,56.70
2018-07-21T12:48:05.063Z,56.99
2018-07-21T12:49:04.507Z,57.25
2018-07-21T12:50:04.637Z,57.38
2018-07-21T12:51:04.747Z,56.20
2018-07-21T12:52:04.511Z,57.25
2018-07-21T12:53:04.446Z,57.35
2018-07-21T12:54:04.801Z,57.18
2018-07-21T12:55:04.757Z,57.11
2018-07-21T12:56:04.675Z,56.26